Home > Products > Valid Products > TAF

000
FTUS43 KOAX 180520
TAFOMA
TAF
KOMA 180520Z 1806/1906 VRB04KT P6SM FEW100 BKN250
     FM181200 15006KT P6SM SCT250
     FM181600 16012KT P6SM SCT250
     FM181800 17016G25KT P6SM FEW040 SCT250
     FM190100 16015KT P6SM SCT250=



000
FTUS43 KOAX 180520
TAFOFK
TAF
KOFK 180520Z 1806/1906 15006KT P6SM FEW100 BKN250
     FM181200 15010KT P6SM SCT250
     FM181500 17016G24KT P6SM SCT250
     FM181800 18020G30KT P6SM SCT040 SCT250
     FM190100 16015G22KT P6SM SCT250=



000
FTUS43 KOAX 180520
TAFLNK
TAF
KLNK 180520Z 1806/1906 16005KT P6SM FEW100 BKN250
     FM181400 17010KT P6SM SCT100
     FM181800 18019G27KT P6SM FEW040 SCT250
     FM190100 17015KT P6SM SCT250=



000
FTUS43 KOAX 172320
TAFOMA
TAF
KOMA 172320Z 1800/1824 VRB04KT P6SM SCT100
     FM180400 15005KT P6SM SCT090
     FM181400 16010KT P6SM SCT100
     FM181700 17015G24KT P6SM FEW040=



000
FTUS43 KOAX 172320
TAFOFK
TAF
KOFK 172320Z 1800/1824 15005KT P6SM FEW050 BKN100
     FM180400 15006KT P6SM SCT100
     FM181200 15010KT P6SM BKN100
     FM181500 17016G25KT P6SM FEW040 SCT100=



000
FTUS43 KOAX 172320
TAFLNK
TAF
KLNK 172320Z 1800/1824 VRB04KT P6SM SCT250
     FM180500 16005KT P6SM SCT090
     FM181400 16010KT P6SM SCT100
     FM181600 17016G25KT P6SM SCT040=



000
FTUS43 KOAX 171720
TAFOMA
TAF
KOMA 171720Z 1718/1818 VRB06KT P6SM SKC
     FM181300 16010KT P6SM SKC
     FM181600 17015G25KT P6SM SKC=



000
FTUS43 KOAX 171720
TAFOFK
TAF
KOFK 171720Z 1718/1818 VRB06KT P6SM SKC
     FM181000 15010KT P6SM SKC
     FM181500 18016G26KT P6SM SKC=



000
FTUS43 KOAX 171720
TAFLNK
TAF
KLNK 171720Z 1718/1818 VRB06KT P6SM SKC
     FM181400 16010KT P6SM SKC
     FM181600 18016G26KT P6SM SKC=



000
FTUS43 KOAX 171557 AAC
TAFOMA
TAF AMD
KOMA 171557Z 1716/1812 01006KT P6SM SCT025
     FM171700 VRB06KT P6SM SKC
     FM180000 13005KT P6SM SKC=



000
FTUS43 KOAX 171553 AAB
TAFOMA
TAF AMD
KOMA 171553Z 1716/1812 35010KT P6SM BKN020
      TEMPO 1716/1717 SCT020
     FM171700 35008KT P6SM SKC
     FM180000 13005KT P6SM SKC=



000
FTUS43 KOAX 171553 AAB
TAFLNK
TAF AMD
KLNK 171553Z 1716/1812 VRB06KT P6SM SCT025
     FM172200 12007KT P6SM SKC=



000
FTUS43 KOAX 171504 AAA
TAFOMA
TAF AMD
KOMA 171504Z 1715/1812 35010KT P6SM BKN020
      TEMPO 1715/1716 SCT020
     FM171600 01008KT P6SM SKC
     FM180000 13005KT P6SM SKC=



000
FTUS43 KOAX 171504 AAA
TAFLNK
TAF AMD
KLNK 171504Z 1715/1812 02007KT P6SM BKN025
      TEMPO 1715/1716 SCT025
     FM171700 02007KT P6SM SKC
     FM172200 12007KT P6SM SKC=



000
FTUS43 KOAX 171326 AAA
TAFOFK
TAF AMD
KOFK 171326Z 1713/1812 35008KT P6SM SKC
     FM172200 16006KT P6SM BKN250=



000
FTUS43 KOAX 171120
TAFOFK
TAF
KOFK 171120Z 1712/1812 32010KT P6SM OVC020
     FM171500 02008KT P6SM SCT025 SCT250
     FM172200 16006KT P6SM BKN250=



000
FTUS43 KOAX 171120
TAFOMA
TAF
KOMA 171120Z 1712/1812 36010KT P6SM OVC020
     FM171700 01008KT P6SM SCT025 SCT250
     FM180000 13005KT P6SM SKC=



000
FTUS43 KOAX 171120
TAFLNK
TAF
KLNK 171120Z 1712/1812 36008KT P6SM OVC020
     FM171700 02007KT P6SM SCT025 SCT250
     FM172200 12007KT P6SM SKC=



000
FTUS43 KOAX 170520
TAFLNK
TAF
KLNK 170520Z 1706/1806 34015G20KT P6SM OVC025
     FM170700 34014KT P6SM OVC019
     FM171000 35008KT P6SM OVC018
      TEMPO 1710/1714 P6SM BKN025
     FM171500 36010KT P6SM SCT025 BKN050
     FM171800 36006KT P6SM SKC=



000
FTUS43 KOAX 170520
TAFOMA
TAF
KOMA 170520Z 1706/1806 33015G20KT P6SM OVC019
     FM170800 33014KT P6SM OVC016
     FM171000 33008KT P6SM OVC018
     FM171500 34010KT P6SM SCT025 BKN040
     FM171800 36006KT P6SM SKC=



000
FTUS43 KOAX 170520
TAFOFK
TAF
KOFK 170520Z 1706/1806 34015G20KT P6SM OVC018
     FM170600 34014KT P6SM OVC015
     FM170900 34011KT P6SM OVC015
      TEMPO 1711/1714 BKN025
     FM171500 36008KT P6SM SCT025 BKN040
     FM171800 16006KT P6SM BKN250=



000
FTUS43 KOAX 170421 AAA
TAFLNK
TAF AMD
KLNK 170421Z 1704/1724 33018G24KT P6SM OVC025
     FM170500 34014KT P6SM OVC025
     FM170900 34008KT P6SM OVC012
     FM171500 36008KT P6SM SCT025 BKN100=



000
FTUS43 KOAX 170205 AAB
TAFOMA
TAF AMD
KOMA 170205Z 1702/1724 32018G24KT P6SM OVC018
     FM170500 33014KT P6SM OVC018
     FM170900 33008KT P6SM OVC015
     FM171500 33008KT P6SM SCT025 BKN100=



000
FTUS43 KOAX 170120 AAA
TAFOMA
TAF AMD
KOMA 170120Z 1701/1724 31025G32KT P6SM OVC020
     FM170200 33018G24KT P6SM OVC020
     FM170300 33014KT P6SM OVC020
     FM170900 33008KT P6SM OVC015
     FM171500 33008KT P6SM SCT025 BKN100=



000
FTUS43 KOAX 162329
TAFOMA
TAF
KOMA 162329Z 1700/1724 31025G32KT P6SM BKN100
     FM170200 33018G24KT P6SM BKN060
     FM170300 33014KT P6SM OVC015
     FM170900 33008KT P6SM OVC012
     FM171500 33008KT P6SM SCT025 BKN100=



000
FTUS43 KOAX 162329
TAFLNK
TAF
KLNK 162329Z 1700/1724 32025G32KT P6SM BKN080
     FM170200 33018G24KT P6SM BKN025
     FM170300 34014KT P6SM OVC015
     FM170900 34008KT P6SM OVC012
     FM171500 36008KT P6SM SCT025 BKN100=



000
FTUS43 KOAX 162329
TAFOFK
TAF
KOFK 162329Z 1700/1724 32025G32KT P6SM OVC018
     FM170100 33022G30KT P6SM OVC018
     FM170400 34013KT P6SM OVC015
     FM170700 34008KT P6SM OVC015
     FM171500 36008KT P6SM SCT025 BKN100=



000
FTUS43 KOAX 162302 AAC
TAFLNK
TAF AMD
KLNK 162302Z 1623/1718 31023G34KT P6SM SCT025 BKN060
     FM170300 34012KT P6SM SCT025 BKN060
      TEMPO 1703/1706 BKN025
     FM171200 34011KT P6SM BKN150=



000
FTUS43 KOAX 162201 AAB
TAFOMA
TAF AMD
KOMA 162201Z 1622/1718 30025G33KT P6SM OVC080
     FM170000 30020G28KT P6SM OVC050
     FM170400 32013KT P6SM SCT025
     FM171300 34010KT P6SM SCT080=



000
FTUS43 KOAX 162019 AAB
TAFOFK
TAF AMD
KOFK 162019Z 1620/1718 31023G32KT P6SM SCT015 BKN025
      TEMPO 1622/1702 SCT025 BKN040
     FM170400 34013KT P6SM SCT025
     FM171500 34008KT P6SM SCT080=



000
FTUS43 KOAX 162003 AAA
TAFOFK
TAF AMD
KOFK 162003Z 1620/1718 31023G32KT P6SM SCT025 BKN050
      TEMPO 1622/1702 BKN025
     FM170400 34013KT P6SM SCT025
     FM171500 34008KT P6SM SCT080=



000
FTUS43 KOAX 162002 AAB
TAFLNK
TAF AMD
KLNK 162002Z 1620/1718 27015G25KT P6SM SCT060
     FM162100 31016G26KT P6SM SCT025 BKN060
     FM170400 34012KT P6SM SCT025 SCT060
     FM171200 34011KT P6SM BKN150=



000
FTUS43 KOAX 162002 AAA
TAFOMA
TAF AMD
KOMA 162002Z 1620/1718 22022G32KT P6SM SCT150
     FM162200 30016G26KT P6SM SCT025
     FM170400 32013KT P6SM SCT025
     FM171300 34010KT P6SM SCT080=



000
FTUS43 KOAX 162001 AAA
TAFLNK
TAF AMD
KLNK 162001Z 1620/1718 17015G25KT P6SM SCT060
     FM162100 31016G26KT P6SM SCT025 BKN060
     FM170400 34012KT P6SM SCT025 SCT060
     FM171200 34011KT P6SM BKN150=



000
FTUS43 KOAX 161729
TAFLNK
TAF
KLNK 161729Z 1618/1718 23024G32KT P6SM SCT150
     FM162100 31016G26KT P6SM SCT025 BKN060
     FM170400 34012KT P6SM SCT025 SCT060
     FM171200 34011KT P6SM BKN150=



000
FTUS43 KOAX 161729
TAFOMA
TAF
KOMA 161729Z 1618/1718 20024G32KT P6SM SCT150
     FM162200 30016G26KT P6SM SCT025
     FM170400 32013KT P6SM SCT025
     FM171300 34010KT P6SM SCT080=



000
FTUS43 KOAX 161729
TAFOFK
TAF
KOFK 161729Z 1618/1718 31023G32KT P6SM SCT025 BKN100
      TEMPO 1622/1702 BKN025
     FM170400 34013KT P6SM SCT025
     FM171500 34008KT P6SM SCT080=



000
FTUS43 KOAX 161405 AAA
TAFOMA
TAF AMD
KOMA 161405Z 1614/1712 19024G32KT P6SM BKN150
     FM162130 30022G31KT P6SM BKN070
     FM170300 32014KT P6SM SCT070
     FM170700 33008KT P6SM SCT070=



000
FTUS43 KOAX 161405 AAA
TAFLNK
TAF AMD
KLNK 161405Z 1614/1712 21024G32KT P6SM BKN150
     FM162100 31024G32KT P6SM BKN070
     FM170200 35014KT P6SM SCT070
     FM170600 34011KT P6SM SCT070=



000
FTUS43 KOAX 161405 AAA
TAFOFK
TAF AMD
KOFK 161405Z 1614/1712 19018G28KT P6SM BKN150 WS015/21050KT
     FM161500 24018G28KT P6SM BKN150
     FM161800 31023G32KT P6SM SCT025 BKN050
     FM170300 34013KT P6SM FEW025 SCT070
     FM170700 34008KT P6SM SCT070=



000
FTUS43 KOAX 161121
TAFOFK
TAF
KOFK 161121Z 1612/1712 22018G24KT P6SM BKN150 WS015/21050KT
     FM161300 24018G26KT P6SM BKN150
     FM161800 31023G32KT P6SM SCT025 BKN050
     FM170300 34013KT P6SM FEW025 SCT070
     FM170700 34008KT P6SM SCT070=



000
FTUS43 KOAX 161121
TAFOMA
TAF
KOMA 161121Z 1612/1712 17020G28KT P6SM BKN150 WS020/20055KT
     FM161400 19024G32KT P6SM BKN150
     FM162130 30022G31KT P6SM BKN070
     FM170300 32014KT P6SM SCT070
     FM170700 33008KT P6SM SCT070=



000
FTUS43 KOAX 161121
TAFLNK
TAF
KLNK 161121Z 1612/1712 18018G28KT P6SM BKN150 WS020/20060KT
     FM161400 22024G32KT P6SM BKN150
     FM162100 31024G32KT P6SM BKN070
     FM170200 35014KT P6SM SCT070
     FM170600 34011KT P6SM SCT070=



000
FTUS43 KOAX 160520
TAFLNK
TAF
KLNK 160520Z 1606/1706 18018KT P6SM BKN150 WS020/20060KT
     FM161400 20024G32KT P6SM BKN150
     FM161800 25024G32KT P6SM SCT050 BKN100
     FM162000 31024G32KT P6SM BKN040=



000
FTUS43 KOAX 160520
TAFOFK
TAF
KOFK 160520Z 1606/1706 16016G20KT P6SM BKN150 WS015/21050KT
     FM161300 19019G24KT P6SM BKN120
     FM161500 24018G26KT P6SM OVC050
      TEMPO 1615/1618 24013KT
     FM161800 31020G32KT P6SM SCT015 BKN050=



000
FTUS43 KOAX 160520
TAFOMA
TAF
KOMA 160520Z 1606/1706 16016KT P6SM BKN150 WS020/20055KT
     FM161400 18024G32KT P6SM BKN070
     FM161900 20021G32KT P6SM BKN100
     FM162100 30024G32KT P6SM OVC050=



000
FTUS43 KOAX 160413 AAA
TAFOFK
TAF AMD
KOFK 160413Z 1604/1624 15015G20KT P6SM BKN150 WS015/21050KT
     FM161300 22021G26KT P6SM OVC050
     FM161600 30024G32KT P6SM OVC040=



000
FTUS43 KOAX 152326
TAFOFK
TAF
KOFK 152326Z 1600/1624 16018G27KT P6SM BKN150
     FM160300 17016G25KT P6SM BKN150 WS020/21050KT
     FM161300 22021G26KT P6SM OVC050
     FM161600 30024G32KT P6SM OVC040=



000
FTUS43 KOAX 152326
TAFOMA
TAF
KOMA 152326Z 1600/1624 15018KT P6SM BKN250
     FM160300 16016KT P6SM BKN150 WS020/19050KT
     FM161400 18024G32KT P6SM BKN070
     FM161900 22024G32KT P6SM OVC050
     FM162100 30024G32KT P6SM OVC050=



000
FTUS43 KOAX 152326
TAFLNK
TAF
KLNK 152326Z 1600/1624 17018KT P6SM BKN150
     FM160300 18016KT P6SM BKN150 WS020/20050KT
     FM161400 22024G32KT P6SM BKN100
     FM161800 25024G32KT P6SM BKN060
     FM162000 30024G32KT P6SM BKN040=



000
FTUS43 KOAX 151725
TAFOFK
TAF
KOFK 151725Z 1518/1618 17018G27KT P6SM BKN150
     FM160400 18018G26KT P6SM BKN150 WS020/21050KT
     FM161300 22016G26KT P6SM BKN070
     FM161600 28022G32KT P6SM BKN100=



000
FTUS43 KOAX 151725
TAFOMA
TAF
KOMA 151725Z 1518/1618 16008KT P6SM SCT250
     FM152000 16015G22KT P6SM BKN150
     FM160100 15018KT P6SM BKN150
     FM160400 16020KT P6SM BKN150 WS020/21055KT
     FM161400 19022G32KT P6SM BKN070=



000
FTUS43 KOAX 151725
TAFLNK
TAF
KLNK 151725Z 1518/1618 16008KT P6SM SCT250
     FM151900 17015G22KT P6SM BKN150
     FM160100 17015KT P6SM BKN150
     FM160400 18018KT P6SM BKN150 WS020/21060KT
     FM161300 22022G32KT P6SM BKN070=



000
FTUS43 KOAX 151120
TAFLNK
TAF
KLNK 151120Z 1512/1612 VRB03KT P6SM SKC
     FM151500 18008KT P6SM SKC
     FM151900 18017G24KT P6SM SCT250
     FM160200 17020KT P6SM SCT150 BKN250=



000
FTUS43 KOAX 151120
TAFOFK
TAF
KOFK 151120Z 1512/1612 15006KT P6SM SKC
     FM151600 17012KT P6SM SKC
     FM151800 18018G25KT P6SM SCT150=



000
FTUS43 KOAX 151120
TAFOMA
TAF
KOMA 151120Z 1512/1612 VRB03KT P6SM SKC
     FM151500 17008KT P6SM SKC
     FM152100 16015G22KT P6SM SCT250
     FM160200 15020KT P6SM SCT150 BKN250=



    US Dept of Commerce
    National Oceanic and Atmospheric Administration
    National Weather Service
    1325 East West Highway
    Silver Spring, MD 20910
    Page Author: NWS Internet Services Team
Disclaimer
Information Quality
Credits
Glossary
Privacy Policy
Freedom of Information Act (FOIA)
About Us
Career Opportunities